AAL7244 KCLT-KDEN
Flight info
| Callsign | AAL7244 |
|---|---|
| Flight time | 3h 41m |
| Altitude | 32000 |
| Route | BOBZY5 BNA FAM/N0470F340 J112 BUM J110 GCK KIISS CLASH4 |
| Aircraft | B738/M-SDE2E3FGHIRWXY/LB1 |
Departure
| Time | 2026-05-07 18:30 |
|---|---|
| Airport | Charlotte Douglas International Airport (KCLT) |
Arrival
| Time | 2026-05-07 22:11 |
|---|---|
| Airport | Denver International Airport (KDEN) |
| Time | Latitude | Longitude | Altitude | Speed | Heading |
|---|---|---|---|---|---|
| 2026-05-07 18:10 | 35.22013 | -80.93923 | 727 ft | 0 kts | 324° |
| 2026-05-07 18:12 | 35.22004 | -80.93915 | 729 ft | 3 kts | 324° |
| 2026-05-07 18:13 | 35.21988 | -80.93901 | 727 ft | 3 kts | 324° |
| 2026-05-07 18:13 | 35.21973 | -80.93887 | 727 ft | 3 kts | 324° |
| 2026-05-07 18:13 | 35.21961 | -80.93870 | 727 ft | 3 kts | 267° |
| 2026-05-07 18:13 | 35.21964 | -80.93856 | 726 ft | 0 kts | 232° |
| 2026-05-07 18:16 | 35.21963 | -80.93858 | 726 ft | 1 kts | 232° |
| 2026-05-07 18:16 | 35.21949 | -80.93878 | 728 ft | 5 kts | 230° |
| 2026-05-07 18:17 | 35.21920 | -80.93917 | 729 ft | 8 kts | 226° |
| 2026-05-07 18:17 | 35.21874 | -80.93943 | 726 ft | 7 kts | 182° |
| 2026-05-07 18:17 | 35.21838 | -80.93973 | 727 ft | 7 kts | 226° |
| 2026-05-07 18:17 | 35.21790 | -80.93989 | 727 ft | 8 kts | 193° |
| 2026-05-07 18:18 | 35.21740 | -80.94036 | 725 ft | 11 kts | 228° |
| 2026-05-07 18:18 | 35.21687 | -80.94109 | 725 ft | 12 kts | 229° |
| 2026-05-07 18:18 | 35.21625 | -80.94194 | 725 ft | 15 kts | 228° |
| 2026-05-07 18:18 | 35.21550 | -80.94298 | 726 ft | 17 kts | 229° |
| 2026-05-07 18:19 | 35.21465 | -80.94415 | 722 ft | 19 kts | 228° |
| 2026-05-07 18:19 | 35.21377 | -80.94537 | 722 ft | 19 kts | 229° |
| 2026-05-07 18:19 | 35.21317 | -80.94671 | 724 ft | 17 kts | 250° |
| 2026-05-07 18:19 | 35.21272 | -80.94799 | 724 ft | 15 kts | 232° |
| 2026-05-07 18:20 | 35.21204 | -80.94885 | 724 ft | 13 kts | 212° |
| 2026-05-07 18:20 | 35.21122 | -80.94887 | 724 ft | 12 kts | 176° |
| 2026-05-07 18:20 | 35.21030 | -80.94880 | 724 ft | 14 kts | 176° |
| 2026-05-07 18:20 | 35.20925 | -80.94870 | 725 ft | 16 kts | 175° |
| 2026-05-07 18:21 | 35.20826 | -80.94890 | 725 ft | 13 kts | 228° |
| 2026-05-07 18:21 | 35.20765 | -80.94944 | 727 ft | 9 kts | 183° |
| 2026-05-07 18:21 | 35.20698 | -80.94942 | 728 ft | 10 kts | 175° |
| 2026-05-07 18:21 | 35.20619 | -80.94934 | 727 ft | 13 kts | 175° |
| 2026-05-07 18:22 | 35.20514 | -80.94924 | 729 ft | 17 kts | 176° |
| 2026-05-07 18:22 | 35.20473 | -80.94920 | 729 ft | 18 kts | 176° |
| 2026-05-07 18:22 | 35.20241 | -80.94900 | 730 ft | 22 kts | 176° |
| 2026-05-07 18:22 | 35.20139 | -80.94893 | 730 ft | 22 kts | 175° |
| 2026-05-07 18:23 | 35.20032 | -80.94906 | 731 ft | 8 kts | 221° |
| 2026-05-07 18:23 | 35.20021 | -80.94957 | 731 ft | 2 kts | 266° |
| 2026-05-07 18:23 | 35.20021 | -80.94958 | 731 ft | 0 kts | 266° |
| 2026-05-07 18:27 | 35.20021 | -80.94959 | 731 ft | 1 kts | 266° |
| 2026-05-07 18:28 | 35.20019 | -80.94998 | 731 ft | 8 kts | 266° |
| 2026-05-07 18:28 | 35.20023 | -80.95072 | 730 ft | 8 kts | 299° |
| 2026-05-07 18:28 | 35.20047 | -80.95086 | 731 ft | 0 kts | 354° |
| 2026-05-07 18:28 | 35.20050 | -80.95086 | 731 ft | 1 kts | 354° |
| 2026-05-07 18:29 | 35.20058 | -80.95087 | 730 ft | 4 kts | 354° |
| 2026-05-07 18:29 | 35.20310 | -80.95109 | 731 ft | 73 kts | 356° |
| 2026-05-07 18:29 | 35.21056 | -80.95173 | 724 ft | 139 kts | 356° |
| 2026-05-07 18:29 | 35.22172 | -80.95272 | 924 ft | 175 kts | 355° |
| 2026-05-07 18:30 | 35.23440 | -80.95384 | 1517 ft | 188 kts | 354° |
| 2026-05-07 18:30 | 35.24603 | -80.96037 | 2195 ft | 190 kts | 307° |
| 2026-05-07 18:30 | 35.24942 | -80.97487 | 2825 ft | 179 kts | 258° |
| 2026-05-07 18:30 | 35.24445 | -80.98827 | 3468 ft | 164 kts | 241° |
| 2026-05-07 18:31 | 35.23864 | -80.99973 | 4055 ft | 156 kts | 239° |
| 2026-05-07 18:31 | 35.23250 | -81.01141 | 4224 ft | 174 kts | 239° |
| 2026-05-07 18:31 | 35.22632 | -81.02462 | 4299 ft | 182 kts | 243° |
| 2026-05-07 18:31 | 35.22102 | -81.03924 | 4358 ft | 198 kts | 256° |
| 2026-05-07 18:32 | 35.21843 | -81.05653 | 4439 ft | 218 kts | 258° |
| 2026-05-07 18:32 | 35.21369 | -81.07570 | 4564 ft | 250 kts | 253° |
| 2026-05-07 18:32 | 35.20837 | -81.09596 | 5144 ft | 257 kts | 253° |
| 2026-05-07 18:32 | 35.20266 | -81.11708 | 5838 ft | 260 kts | 254° |
| 2026-05-07 18:33 | 35.19813 | -81.13817 | 6551 ft | 260 kts | 261° |
| 2026-05-07 18:33 | 35.19636 | -81.16038 | 7294 ft | 259 kts | 269° |
| 2026-05-07 18:33 | 35.19665 | -81.18230 | 8051 ft | 258 kts | 271° |
| 2026-05-07 18:33 | 35.19680 | -81.20415 | 8815 ft | 257 kts | 269° |
| 2026-05-07 18:34 | 35.19638 | -81.22661 | 9615 ft | 256 kts | 268° |
| 2026-05-07 18:34 | 35.19595 | -81.24764 | 10266 ft | 256 kts | 268° |
| 2026-05-07 18:34 | 35.19561 | -81.26941 | 10734 ft | 264 kts | 268° |
| 2026-05-07 18:34 | 35.19529 | -81.29268 | 11068 ft | 277 kts | 268° |
| 2026-05-07 18:35 | 35.19492 | -81.31690 | 11286 ft | 293 kts | 268° |
| 2026-05-07 18:35 | 35.19450 | -81.34214 | 11543 ft | 301 kts | 268° |
| 2026-05-07 18:35 | 35.19377 | -81.36801 | 12018 ft | 308 kts | 267° |
| 2026-05-07 18:35 | 35.19294 | -81.39437 | 12531 ft | 312 kts | 267° |
| 2026-05-07 18:36 | 35.19219 | -81.42093 | 13121 ft | 315 kts | 267° |
| 2026-05-07 18:36 | 35.19148 | -81.44780 | 13710 ft | 317 kts | 267° |
| 2026-05-07 18:36 | 35.19074 | -81.47477 | 14259 ft | 319 kts | 267° |
| 2026-05-07 18:36 | 35.18996 | -81.50186 | 14832 ft | 319 kts | 267° |
| 2026-05-07 18:37 | 35.18918 | -81.52901 | 15431 ft | 320 kts | 267° |
| 2026-05-07 18:37 | 35.18836 | -81.55609 | 16038 ft | 319 kts | 267° |
| 2026-05-07 18:37 | 35.18737 | -81.58315 | 16657 ft | 319 kts | 267° |
| 2026-05-07 18:37 | 35.18638 | -81.61027 | 17264 ft | 318 kts | 267° |
| 2026-05-07 18:38 | 35.18673 | -81.63766 | 17878 ft | 318 kts | 274° |
| 2026-05-07 18:38 | 35.18999 | -81.66398 | 18442 ft | 318 kts | 277° |
| 2026-05-07 18:38 | 35.19405 | -81.69091 | 18969 ft | 317 kts | 276° |
| 2026-05-07 18:38 | 35.19791 | -81.71741 | 19467 ft | 317 kts | 276° |
| 2026-05-07 18:39 | 35.20180 | -81.74402 | 19955 ft | 318 kts | 276° |
| 2026-05-07 18:39 | 35.20579 | -81.77098 | 20426 ft | 319 kts | 276° |
| 2026-05-07 18:39 | 35.20973 | -81.79768 | 20883 ft | 320 kts | 276° |
| 2026-05-07 18:39 | 35.21366 | -81.82448 | 21318 ft | 321 kts | 276° |
| 2026-05-07 18:40 | 35.21762 | -81.85148 | 21757 ft | 323 kts | 276° |
| 2026-05-07 18:40 | 35.22158 | -81.87857 | 22184 ft | 325 kts | 276° |
| 2026-05-07 18:40 | 35.22556 | -81.90577 | 22603 ft | 326 kts | 276° |
| 2026-05-07 18:40 | 35.22957 | -81.93325 | 23023 ft | 328 kts | 275° |
| 2026-05-07 18:41 | 35.23291 | -81.95617 | 23375 ft | 330 kts | 275° |
| 2026-05-07 18:43 | 35.23385 | -81.96263 | 23455 ft | 331 kts | 275° |
| 2026-05-07 18:44 | 35.23767 | -81.98896 | 23846 ft | 332 kts | 274° |
| 2026-05-07 18:44 | 35.24170 | -82.01681 | 24200 ft | 333 kts | 275° |
| 2026-05-07 18:44 | 35.24576 | -82.04474 | 24560 ft | 334 kts | 275° |
| 2026-05-07 18:44 | 35.24982 | -82.07276 | 24902 ft | 335 kts | 275° |
| 2026-05-07 18:45 | 35.25389 | -82.10088 | 25263 ft | 336 kts | 274° |
| 2026-05-07 18:45 | 35.25795 | -82.12907 | 25626 ft | 337 kts | 275° |
| 2026-05-07 18:45 | 35.26202 | -82.15738 | 25976 ft | 338 kts | 275° |
| 2026-05-07 18:45 | 35.26616 | -82.18612 | 26339 ft | 339 kts | 275° |
| 2026-05-07 18:46 | 35.27024 | -82.21460 | 26708 ft | 340 kts | 275° |
| 2026-05-07 18:46 | 35.27439 | -82.24355 | 27076 ft | 341 kts | 274° |
| 2026-05-07 18:46 | 35.27848 | -82.27221 | 27412 ft | 343 kts | 275° |
| 2026-05-07 18:46 | 35.28265 | -82.30137 | 27743 ft | 344 kts | 275° |
| 2026-05-07 18:47 | 35.28677 | -82.33030 | 28094 ft | 346 kts | 275° |
| 2026-05-07 18:47 | 35.29090 | -82.35939 | 28447 ft | 347 kts | 275° |
| 2026-05-07 18:47 | 35.29506 | -82.38853 | 28768 ft | 348 kts | 275° |
| 2026-05-07 18:47 | 35.29920 | -82.41783 | 29090 ft | 349 kts | 275° |
| 2026-05-07 18:48 | 35.30334 | -82.44719 | 29398 ft | 351 kts | 275° |
| 2026-05-07 18:48 | 35.30749 | -82.47656 | 29774 ft | 350 kts | 275° |
| 2026-05-07 18:48 | 35.31149 | -82.50485 | 30186 ft | 349 kts | 275° |
| 2026-05-07 18:48 | 35.31560 | -82.53404 | 30563 ft | 347 kts | 275° |
| 2026-05-07 18:49 | 35.31967 | -82.56307 | 30949 ft | 345 kts | 275° |
| 2026-05-07 18:49 | 35.32372 | -82.59199 | 31340 ft | 344 kts | 274° |
| 2026-05-07 18:49 | 35.32776 | -82.62082 | 31689 ft | 343 kts | 275° |
| 2026-05-07 18:49 | 35.33179 | -82.64974 | 31897 ft | 346 kts | 275° |
| 2026-05-07 18:50 | 35.33586 | -82.67906 | 31929 ft | 352 kts | 275° |
| 2026-05-07 18:50 | 35.34413 | -82.73835 | 31922 ft | 353 kts | 275° |
| 2026-05-07 18:51 | 35.35095 | -82.78760 | 31942 ft | 354 kts | 275° |
| 2026-05-07 18:51 | 35.35916 | -82.84711 | 31916 ft | 353 kts | 275° |
| 2026-05-07 18:52 | 35.36727 | -82.90608 | 31911 ft | 354 kts | 274° |
| 2026-05-07 18:52 | 35.37544 | -82.96556 | 31906 ft | 354 kts | 275° |
| 2026-05-07 18:53 | 35.38350 | -83.02467 | 31912 ft | 353 kts | 274° |
| 2026-05-07 18:53 | 35.39162 | -83.08432 | 31921 ft | 354 kts | 274° |
| 2026-05-07 18:54 | 35.39966 | -83.14370 | 31916 ft | 353 kts | 274° |
| 2026-05-07 18:54 | 35.40773 | -83.20347 | 31925 ft | 353 kts | 274° |
| 2026-05-07 18:55 | 35.41713 | -83.26262 | 31933 ft | 357 kts | 279° |
| 2026-05-07 18:55 | 35.43055 | -83.32154 | 31944 ft | 357 kts | 279° |
| 2026-05-07 18:56 | 35.44381 | -83.38056 | 31945 ft | 356 kts | 279° |
| 2026-05-07 18:56 | 35.45703 | -83.43906 | 31946 ft | 356 kts | 279° |
| 2026-05-07 18:57 | 35.47013 | -83.49745 | 31962 ft | 355 kts | 279° |
| 2026-05-07 18:57 | 35.48341 | -83.55665 | 31958 ft | 354 kts | 279° |
| 2026-05-07 18:58 | 35.49628 | -83.61421 | 31971 ft | 352 kts | 279° |
| 2026-05-07 18:58 | 35.50919 | -83.67215 | 31966 ft | 353 kts | 279° |
| 2026-05-07 18:59 | 35.52206 | -83.72996 | 32001 ft | 348 kts | 279° |
| 2026-05-07 18:59 | 35.53266 | -83.77770 | 31984 ft | 348 kts | 279° |
| 2026-05-07 19:00 | 35.54550 | -83.83580 | 32006 ft | 351 kts | 279° |
| 2026-05-07 19:00 | 35.55829 | -83.89361 | 32008 ft | 351 kts | 279° |
| 2026-05-07 19:01 | 35.57101 | -83.95132 | 32007 ft | 350 kts | 279° |
| 2026-05-07 19:01 | 35.58370 | -84.00902 | 32010 ft | 349 kts | 279° |
| 2026-05-07 19:02 | 35.59623 | -84.06622 | 32008 ft | 349 kts | 279° |
| 2026-05-07 19:02 | 35.60883 | -84.12381 | 32001 ft | 349 kts | 279° |
| 2026-05-07 19:03 | 35.62139 | -84.18131 | 32007 ft | 345 kts | 279° |
| 2026-05-07 19:03 | 35.63376 | -84.23819 | 32011 ft | 344 kts | 279° |
| 2026-05-07 19:04 | 35.64610 | -84.29499 | 32018 ft | 344 kts | 279° |
| 2026-05-07 19:04 | 35.65836 | -84.35161 | 32007 ft | 342 kts | 279° |
| 2026-05-07 19:05 | 35.67058 | -84.40819 | 32013 ft | 342 kts | 279° |
| 2026-05-07 19:05 | 35.68277 | -84.46476 | 32014 ft | 342 kts | 279° |
| 2026-05-07 19:06 | 35.69494 | -84.52133 | 32012 ft | 342 kts | 279° |
| 2026-05-07 19:06 | 35.71323 | -84.60669 | 32014 ft | 342 kts | 279° |
| 2026-05-07 19:07 | 35.72268 | -84.65090 | 32020 ft | 342 kts | 279° |
| 2026-05-07 19:07 | 35.73476 | -84.70757 | 32015 ft | 341 kts | 279° |
| 2026-05-07 19:08 | 35.74677 | -84.76402 | 32006 ft | 341 kts | 279° |
| 2026-05-07 19:08 | 35.75873 | -84.82040 | 32007 ft | 340 kts | 278° |
| 2026-05-07 19:09 | 35.77067 | -84.87683 | 32009 ft | 341 kts | 279° |
| 2026-05-07 19:09 | 35.78259 | -84.93330 | 32007 ft | 341 kts | 279° |
| 2026-05-07 19:10 | 35.79450 | -84.98983 | 32015 ft | 341 kts | 279° |
| 2026-05-07 19:10 | 35.80638 | -85.04644 | 32013 ft | 341 kts | 278° |
| 2026-05-07 19:11 | 35.81791 | -85.10139 | 32013 ft | 340 kts | 278° |
| 2026-05-07 19:11 | 35.82978 | -85.15823 | 32020 ft | 340 kts | 278° |
| 2026-05-07 19:12 | 35.84155 | -85.21468 | 32019 ft | 340 kts | 278° |
| 2026-05-07 19:12 | 35.85319 | -85.27062 | 32018 ft | 340 kts | 278° |
| 2026-05-07 19:13 | 35.86487 | -85.32717 | 32031 ft | 340 kts | 278° |
| 2026-05-07 19:13 | 35.87661 | -85.38405 | 32038 ft | 339 kts | 279° |
| 2026-05-07 19:14 | 35.88818 | -85.44038 | 32042 ft | 340 kts | 278° |
| 2026-05-07 19:14 | 35.89978 | -85.49689 | 32047 ft | 340 kts | 278° |
| 2026-05-07 19:15 | 35.91135 | -85.55343 | 32042 ft | 340 kts | 278° |
| 2026-05-07 19:15 | 35.92289 | -85.60998 | 32043 ft | 340 kts | 278° |
| 2026-05-07 19:16 | 35.93241 | -85.65669 | 32045 ft | 341 kts | 278° |
| 2026-05-07 19:16 | 35.94203 | -85.70403 | 32042 ft | 341 kts | 278° |
| 2026-05-07 19:17 | 35.95357 | -85.76097 | 32045 ft | 342 kts | 278° |
| 2026-05-07 19:17 | 35.96506 | -85.81775 | 32048 ft | 340 kts | 278° |
| 2026-05-07 19:18 | 35.97872 | -85.87397 | 32048 ft | 346 kts | 284° |
| 2026-05-07 19:18 | 35.99979 | -85.92804 | 32060 ft | 352 kts | 288° |
| 2026-05-07 19:19 | 36.02203 | -85.98187 | 32064 ft | 352 kts | 288° |
| 2026-05-07 19:19 | 36.04381 | -86.03430 | 32059 ft | 351 kts | 288° |
| 2026-05-07 19:20 | 36.06599 | -86.08795 | 32049 ft | 350 kts | 288° |
| 2026-05-07 19:20 | 36.08821 | -86.14173 | 32065 ft | 351 kts | 288° |
| 2026-05-07 19:21 | 36.11038 | -86.19544 | 32059 ft | 351 kts | 288° |
| 2026-05-07 19:21 | 36.13251 | -86.24924 | 32062 ft | 351 kts | 288° |
| 2026-05-07 19:22 | 36.15091 | -86.29396 | 32075 ft | 351 kts | 287° |
| 2026-05-07 19:22 | 36.17304 | -86.34786 | 32084 ft | 351 kts | 288° |
| 2026-05-07 19:23 | 36.19512 | -86.40175 | 32104 ft | 351 kts | 288° |
| 2026-05-07 19:23 | 36.21725 | -86.45583 | 32083 ft | 352 kts | 288° |
| 2026-05-07 19:24 | 36.23936 | -86.50995 | 32086 ft | 352 kts | 288° |
| 2026-05-07 19:24 | 36.26145 | -86.56414 | 32074 ft | 352 kts | 288° |
| 2026-05-07 19:25 | 36.28191 | -86.61437 | 32066 ft | 353 kts | 288° |
| 2026-05-07 19:25 | 36.30403 | -86.66880 | 32064 ft | 354 kts | 288° |
| 2026-05-07 19:26 | 36.32612 | -86.72321 | 32044 ft | 353 kts | 288° |
| 2026-05-07 19:26 | 36.34837 | -86.77813 | 32048 ft | 354 kts | 288° |
| 2026-05-07 19:27 | 36.37043 | -86.83270 | 32043 ft | 354 kts | 288° |
| 2026-05-07 19:27 | 36.38263 | -86.86288 | 32050 ft | 354 kts | 288° |
| 2026-05-07 19:28 | 36.40463 | -86.91743 | 32043 ft | 354 kts | 288° |
| 2026-05-07 19:28 | 36.42653 | -86.97182 | 32054 ft | 354 kts | 288° |
| 2026-05-07 19:29 | 36.44854 | -87.02657 | 32048 ft | 354 kts | 288° |
| 2026-05-07 19:29 | 36.47053 | -87.08136 | 32095 ft | 356 kts | 288° |
| 2026-05-07 19:30 | 36.49245 | -87.13610 | 32076 ft | 357 kts | 288° |
| 2026-05-07 19:30 | 36.51461 | -87.19149 | 32076 ft | 356 kts | 288° |
| 2026-05-07 19:31 | 36.53666 | -87.24672 | 32075 ft | 357 kts | 288° |
| 2026-05-07 19:31 | 36.55872 | -87.30204 | 32075 ft | 357 kts | 288° |
| 2026-05-07 19:32 | 36.58075 | -87.35743 | 32074 ft | 358 kts | 288° |
| 2026-05-07 19:32 | 36.60280 | -87.41294 | 32073 ft | 358 kts | 288° |
| 2026-05-07 19:33 | 36.62468 | -87.46811 | 32076 ft | 358 kts | 288° |
| 2026-05-07 19:33 | 36.64682 | -87.52405 | 32057 ft | 358 kts | 288° |
| 2026-05-07 19:34 | 36.66861 | -87.57921 | 32057 ft | 358 kts | 288° |
| 2026-05-07 19:34 | 36.69048 | -87.63463 | 32061 ft | 358 kts | 288° |
| 2026-05-07 19:35 | 36.71240 | -87.69030 | 32064 ft | 358 kts | 288° |
| 2026-05-07 19:35 | 36.73435 | -87.74620 | 32062 ft | 363 kts | 288° |
| 2026-05-07 19:36 | 36.75670 | -87.80310 | 32060 ft | 365 kts | 289° |
| 2026-05-07 19:36 | 36.77895 | -87.85992 | 32062 ft | 364 kts | 288° |
| 2026-05-07 19:37 | 36.80113 | -87.91667 | 32075 ft | 364 kts | 288° |
| 2026-05-07 19:37 | 36.82332 | -87.97351 | 32076 ft | 364 kts | 288° |
| 2026-05-07 19:38 | 36.84560 | -88.03073 | 32070 ft | 364 kts | 288° |
| 2026-05-07 19:38 | 36.86775 | -88.08767 | 32072 ft | 364 kts | 288° |
| 2026-05-07 19:39 | 36.88989 | -88.14473 | 32070 ft | 365 kts | 288° |
| 2026-05-07 19:39 | 36.91203 | -88.20187 | 32079 ft | 365 kts | 288° |
| 2026-05-07 19:40 | 36.93413 | -88.25901 | 32075 ft | 365 kts | 288° |
| 2026-05-07 19:40 | 36.95622 | -88.31622 | 32073 ft | 365 kts | 288° |
| 2026-05-07 19:41 | 36.97827 | -88.37345 | 32070 ft | 365 kts | 288° |
| 2026-05-07 19:41 | 37.00037 | -88.43092 | 32083 ft | 368 kts | 288° |
| 2026-05-07 19:42 | 37.02251 | -88.48858 | 32089 ft | 369 kts | 289° |
| 2026-05-07 19:42 | 37.04473 | -88.54656 | 32091 ft | 369 kts | 289° |
| 2026-05-07 19:43 | 37.06692 | -88.60457 | 32090 ft | 369 kts | 288° |
| 2026-05-07 19:43 | 37.08907 | -88.66260 | 32091 ft | 369 kts | 288° |
| 2026-05-07 19:44 | 37.11121 | -88.72070 | 32092 ft | 370 kts | 288° |
| 2026-05-07 19:44 | 37.13331 | -88.77880 | 32092 ft | 369 kts | 288° |
| 2026-05-07 19:45 | 37.15540 | -88.83700 | 32091 ft | 370 kts | 288° |
| 2026-05-07 19:45 | 37.17750 | -88.89530 | 32081 ft | 371 kts | 288° |
| 2026-05-07 19:46 | 37.19959 | -88.95368 | 32080 ft | 371 kts | 288° |
| 2026-05-07 19:46 | 37.22164 | -89.01210 | 32081 ft | 371 kts | 288° |
| 2026-05-07 19:47 | 37.24357 | -89.07033 | 32095 ft | 375 kts | 289° |
| 2026-05-07 19:47 | 37.26599 | -89.12990 | 32094 ft | 375 kts | 289° |
| 2026-05-07 19:48 | 37.28806 | -89.18871 | 32095 ft | 375 kts | 289° |
| 2026-05-07 19:48 | 37.31038 | -89.24830 | 32075 ft | 375 kts | 289° |
| 2026-05-07 19:49 | 37.33245 | -89.30732 | 32079 ft | 376 kts | 289° |
| 2026-05-07 19:49 | 37.35428 | -89.36581 | 32080 ft | 376 kts | 288° |
| 2026-05-07 19:50 | 37.37644 | -89.42529 | 32080 ft | 376 kts | 288° |
| 2026-05-07 19:50 | 37.39857 | -89.48482 | 32080 ft | 376 kts | 288° |
| 2026-05-07 19:51 | 37.42052 | -89.54396 | 32087 ft | 376 kts | 288° |
| 2026-05-07 19:51 | 37.44258 | -89.60354 | 32087 ft | 376 kts | 288° |
| 2026-05-07 19:52 | 37.46462 | -89.66315 | 32088 ft | 376 kts | 288° |
| 2026-05-07 19:52 | 37.48664 | -89.72286 | 32103 ft | 377 kts | 289° |
| 2026-05-07 19:53 | 37.50872 | -89.78280 | 32101 ft | 377 kts | 289° |
| 2026-05-07 19:53 | 37.53076 | -89.84279 | 32104 ft | 377 kts | 289° |
| 2026-05-07 19:54 | 37.55277 | -89.90280 | 32104 ft | 377 kts | 289° |
| 2026-05-07 19:54 | 37.57432 | -89.96167 | 32099 ft | 377 kts | 289° |
| 2026-05-07 19:55 | 37.59627 | -90.02176 | 32103 ft | 378 kts | 289° |
| 2026-05-07 19:55 | 37.61813 | -90.08171 | 32101 ft | 378 kts | 289° |
| 2026-05-07 19:56 | 37.64015 | -90.14223 | 32101 ft | 378 kts | 289° |
| 2026-05-07 19:56 | 37.66204 | -90.20250 | 32099 ft | 378 kts | 288° |
| 2026-05-07 19:57 | 37.67837 | -90.26468 | 32102 ft | 371 kts | 278° |
| 2026-05-07 19:57 | 37.68852 | -90.32854 | 32102 ft | 371 kts | 278° |
| 2026-05-07 19:58 | 37.69871 | -90.39237 | 32085 ft | 371 kts | 278° |
| 2026-05-07 19:58 | 37.70881 | -90.45639 | 32088 ft | 372 kts | 278° |
| 2026-05-07 19:59 | 37.71894 | -90.52048 | 32089 ft | 373 kts | 278° |
| 2026-05-07 19:59 | 37.72902 | -90.58470 | 32089 ft | 373 kts | 278° |
| 2026-05-07 20:00 | 37.73909 | -90.64903 | 32093 ft | 373 kts | 278° |
| 2026-05-07 20:00 | 37.74911 | -90.71329 | 32096 ft | 373 kts | 278° |
| 2026-05-07 20:01 | 37.75910 | -90.77760 | 32099 ft | 373 kts | 278° |
| 2026-05-07 20:01 | 37.76909 | -90.84216 | 32099 ft | 374 kts | 278° |
| 2026-05-07 20:02 | 37.77905 | -90.90675 | 32094 ft | 374 kts | 278° |
| 2026-05-07 20:02 | 37.78897 | -90.97132 | 32095 ft | 374 kts | 278° |
| 2026-05-07 20:03 | 37.79885 | -91.03591 | 32093 ft | 374 kts | 278° |
| 2026-05-07 20:03 | 37.80704 | -91.08959 | 32098 ft | 374 kts | 278° |
| 2026-05-07 20:04 | 37.81685 | -91.15419 | 32078 ft | 375 kts | 278° |
| 2026-05-07 20:04 | 37.82653 | -91.21812 | 32086 ft | 376 kts | 278° |
| 2026-05-07 20:05 | 37.83630 | -91.28295 | 32077 ft | 375 kts | 278° |
| 2026-05-07 20:05 | 37.84602 | -91.34770 | 32081 ft | 375 kts | 278° |
| 2026-05-07 20:06 | 37.85572 | -91.41251 | 32071 ft | 375 kts | 278° |
| 2026-05-07 20:06 | 37.86538 | -91.47736 | 32073 ft | 375 kts | 278° |
| 2026-05-07 20:07 | 37.87501 | -91.54220 | 32074 ft | 376 kts | 278° |
| 2026-05-07 20:07 | 37.88464 | -91.60736 | 32076 ft | 377 kts | 278° |
| 2026-05-07 20:08 | 37.89424 | -91.67254 | 32075 ft | 377 kts | 278° |
| 2026-05-07 20:08 | 37.90380 | -91.73774 | 32074 ft | 377 kts | 278° |
| 2026-05-07 20:09 | 37.91333 | -91.80301 | 32067 ft | 377 kts | 278° |
| 2026-05-07 20:10 | 37.92756 | -91.90089 | 32053 ft | 377 kts | 278° |
| 2026-05-07 20:10 | 37.93702 | -91.96641 | 32048 ft | 378 kts | 278° |
| 2026-05-07 20:11 | 37.94644 | -92.03174 | 32044 ft | 378 kts | 278° |
| 2026-05-07 20:11 | 37.95584 | -92.09734 | 32046 ft | 378 kts | 278° |
| 2026-05-07 20:12 | 37.96516 | -92.16259 | 32048 ft | 378 kts | 278° |
| 2026-05-07 20:12 | 37.97448 | -92.22811 | 32058 ft | 378 kts | 278° |
| 2026-05-07 20:13 | 37.98376 | -92.29364 | 32046 ft | 378 kts | 278° |
| 2026-05-07 20:13 | 37.99306 | -92.35959 | 32060 ft | 380 kts | 278° |
| 2026-05-07 20:14 | 38.00232 | -92.42550 | 32058 ft | 380 kts | 278° |
| 2026-05-07 20:14 | 38.01155 | -92.49149 | 32062 ft | 380 kts | 278° |
| 2026-05-07 20:15 | 38.02073 | -92.55746 | 32062 ft | 380 kts | 278° |
| 2026-05-07 20:15 | 38.02989 | -92.62346 | 32071 ft | 380 kts | 278° |
| 2026-05-07 20:16 | 38.03899 | -92.68942 | 32062 ft | 381 kts | 278° |
| 2026-05-07 20:16 | 38.04809 | -92.75566 | 32058 ft | 381 kts | 278° |
| 2026-05-07 20:17 | 38.05715 | -92.82191 | 32058 ft | 381 kts | 278° |
| 2026-05-07 20:17 | 38.06616 | -92.88813 | 32061 ft | 381 kts | 278° |
| 2026-05-07 20:18 | 38.07513 | -92.95428 | 32060 ft | 380 kts | 277° |
| 2026-05-07 20:18 | 38.08404 | -93.02029 | 32062 ft | 380 kts | 277° |
| 2026-05-07 20:19 | 38.09292 | -93.08638 | 32050 ft | 382 kts | 277° |
| 2026-05-07 20:19 | 38.10182 | -93.15290 | 32050 ft | 382 kts | 277° |
| 2026-05-07 20:20 | 38.11057 | -93.21862 | 32053 ft | 382 kts | 277° |
| 2026-05-07 20:20 | 38.11939 | -93.28514 | 32052 ft | 382 kts | 277° |
| 2026-05-07 20:21 | 38.12817 | -93.35171 | 32053 ft | 382 kts | 277° |
| 2026-05-07 20:21 | 38.13693 | -93.41833 | 32051 ft | 382 kts | 277° |
| 2026-05-07 20:22 | 38.14563 | -93.48487 | 32055 ft | 380 kts | 277° |
| 2026-05-07 20:22 | 38.15425 | -93.55107 | 32037 ft | 380 kts | 277° |
| 2026-05-07 20:23 | 38.16283 | -93.61726 | 32041 ft | 380 kts | 277° |
| 2026-05-07 20:23 | 38.17137 | -93.68352 | 32041 ft | 380 kts | 277° |
| 2026-05-07 20:24 | 38.17989 | -93.74980 | 32039 ft | 380 kts | 277° |
| 2026-05-07 20:24 | 38.18836 | -93.81610 | 32025 ft | 381 kts | 277° |
| 2026-05-07 20:25 | 38.19685 | -93.88284 | 32050 ft | 383 kts | 277° |
| 2026-05-07 20:25 | 38.20537 | -93.95011 | 32055 ft | 383 kts | 277° |
| 2026-05-07 20:26 | 38.21379 | -94.01693 | 32039 ft | 383 kts | 277° |
| 2026-05-07 20:26 | 38.22216 | -94.08372 | 32041 ft | 383 kts | 277° |
| 2026-05-07 20:27 | 38.23053 | -94.15058 | 32044 ft | 383 kts | 277° |
| 2026-05-07 20:27 | 38.23883 | -94.21745 | 32034 ft | 385 kts | 277° |
| 2026-05-07 20:28 | 38.24717 | -94.28478 | 32042 ft | 385 kts | 277° |
| 2026-05-07 20:28 | 38.25544 | -94.35203 | 32041 ft | 385 kts | 277° |
| 2026-05-07 20:29 | 38.26368 | -94.41929 | 32042 ft | 385 kts | 277° |
| 2026-05-07 20:29 | 38.27106 | -94.48669 | 32036 ft | 384 kts | 272° |
| 2026-05-07 20:30 | 38.27001 | -94.55463 | 32043 ft | 384 kts | 268° |
| 2026-05-07 20:30 | 38.26802 | -94.62264 | 32027 ft | 386 kts | 268° |
| 2026-05-07 20:31 | 38.26584 | -94.69082 | 32023 ft | 386 kts | 268° |
| 2026-05-07 20:31 | 38.26368 | -94.75899 | 32024 ft | 386 kts | 268° |
| 2026-05-07 20:32 | 38.26146 | -94.82718 | 32024 ft | 386 kts | 268° |
| 2026-05-07 20:32 | 38.25921 | -94.89536 | 32026 ft | 386 kts | 268° |
| 2026-05-07 20:33 | 38.25692 | -94.96353 | 32016 ft | 386 kts | 268° |
| 2026-05-07 20:33 | 38.25457 | -95.03198 | 32012 ft | 387 kts | 268° |
| 2026-05-07 20:34 | 38.25219 | -95.10047 | 32009 ft | 387 kts | 268° |
| 2026-05-07 20:34 | 38.24976 | -95.16896 | 32009 ft | 387 kts | 268° |
| 2026-05-07 20:35 | 38.24730 | -95.23739 | 32007 ft | 387 kts | 268° |
| 2026-05-07 20:35 | 38.24480 | -95.30589 | 32008 ft | 388 kts | 268° |
| 2026-05-07 20:36 | 38.24321 | -95.34865 | 32010 ft | 389 kts | 268° |
| 2026-05-07 20:36 | 38.24184 | -95.38547 | 32002 ft | 390 kts | 268° |
| 2026-05-07 20:37 | 38.23924 | -95.45416 | 32006 ft | 389 kts | 268° |
| 2026-05-07 20:37 | 38.23660 | -95.52273 | 32005 ft | 388 kts | 268° |
| 2026-05-07 20:38 | 38.23393 | -95.59135 | 32003 ft | 388 kts | 268° |
| 2026-05-07 20:38 | 38.23121 | -95.65997 | 32001 ft | 389 kts | 268° |
| 2026-05-07 20:39 | 38.22845 | -95.72860 | 32008 ft | 389 kts | 267° |
| 2026-05-07 20:39 | 38.22565 | -95.79747 | 32005 ft | 390 kts | 267° |
| 2026-05-07 20:40 | 38.22280 | -95.86629 | 32005 ft | 390 kts | 267° |
| 2026-05-07 20:40 | 38.21992 | -95.93508 | 32004 ft | 389 kts | 267° |
| 2026-05-07 20:41 | 38.21700 | -96.00381 | 32004 ft | 389 kts | 267° |
| 2026-05-07 20:41 | 38.21403 | -96.07254 | 32005 ft | 389 kts | 267° |
| 2026-05-07 20:42 | 38.21102 | -96.14151 | 32011 ft | 392 kts | 267° |
| 2026-05-07 20:42 | 38.20796 | -96.21054 | 32008 ft | 391 kts | 267° |
| 2026-05-07 20:43 | 38.20537 | -96.26839 | 32000 ft | 391 kts | 267° |
| 2026-05-07 20:43 | 38.20224 | -96.33741 | 32007 ft | 391 kts | 267° |
| 2026-05-07 20:44 | 38.19909 | -96.40590 | 32003 ft | 390 kts | 267° |
| 2026-05-07 20:44 | 38.19589 | -96.47484 | 31989 ft | 391 kts | 267° |
| 2026-05-07 20:45 | 38.19265 | -96.54347 | 31995 ft | 392 kts | 267° |
| 2026-05-07 20:45 | 38.18935 | -96.61267 | 31991 ft | 392 kts | 267° |
| 2026-05-07 20:46 | 38.18601 | -96.68189 | 31993 ft | 392 kts | 267° |
| 2026-05-07 20:46 | 38.18262 | -96.75109 | 31992 ft | 392 kts | 267° |
| 2026-05-07 20:47 | 38.17920 | -96.82025 | 31988 ft | 392 kts | 267° |
| 2026-05-07 20:47 | 38.17573 | -96.88953 | 31981 ft | 394 kts | 266° |
| 2026-05-07 20:48 | 38.17221 | -96.95879 | 31983 ft | 392 kts | 266° |
| 2026-05-07 20:48 | 38.16866 | -97.02796 | 31983 ft | 392 kts | 266° |
| 2026-05-07 20:49 | 38.16507 | -97.09715 | 31985 ft | 392 kts | 266° |
| 2026-05-07 20:49 | 38.16144 | -97.16631 | 31989 ft | 392 kts | 266° |
| 2026-05-07 20:50 | 38.15777 | -97.23546 | 31991 ft | 392 kts | 266° |
| 2026-05-07 20:50 | 38.15406 | -97.30460 | 31993 ft | 392 kts | 266° |
| 2026-05-07 20:51 | 38.15031 | -97.37369 | 31989 ft | 392 kts | 266° |
| 2026-05-07 20:51 | 38.14651 | -97.44282 | 31984 ft | 392 kts | 266° |
| 2026-05-07 20:52 | 38.14269 | -97.51188 | 31952 ft | 392 kts | 266° |
| 2026-05-07 20:52 | 38.13882 | -97.58101 | 31955 ft | 392 kts | 266° |
| 2026-05-07 20:53 | 38.13490 | -97.65034 | 31966 ft | 394 kts | 266° |
| 2026-05-07 20:53 | 38.13094 | -97.71963 | 31968 ft | 393 kts | 266° |
| 2026-05-07 20:54 | 38.12693 | -97.78893 | 31972 ft | 393 kts | 266° |
| 2026-05-07 20:54 | 38.12289 | -97.85817 | 31975 ft | 393 kts | 266° |
| 2026-05-07 20:55 | 38.11881 | -97.92744 | 31977 ft | 393 kts | 266° |
| 2026-05-07 20:55 | 38.11468 | -97.99674 | 31979 ft | 395 kts | 266° |
| 2026-05-07 20:56 | 38.11050 | -98.06628 | 31969 ft | 395 kts | 266° |
| 2026-05-07 20:56 | 38.10628 | -98.13569 | 31955 ft | 394 kts | 266° |
| 2026-05-07 20:57 | 38.10203 | -98.20508 | 31940 ft | 394 kts | 266° |
| 2026-05-07 20:57 | 38.09773 | -98.27441 | 31943 ft | 394 kts | 266° |
| 2026-05-07 20:58 | 38.09339 | -98.34382 | 31932 ft | 394 kts | 266° |
| 2026-05-07 20:58 | 38.08900 | -98.41343 | 31942 ft | 395 kts | 266° |
| 2026-05-07 20:59 | 38.08455 | -98.48301 | 31942 ft | 396 kts | 266° |
| 2026-05-07 20:59 | 38.08006 | -98.55260 | 31942 ft | 396 kts | 266° |
| 2026-05-07 21:00 | 38.07553 | -98.62219 | 31944 ft | 395 kts | 266° |
| 2026-05-07 21:00 | 38.07097 | -98.69174 | 31945 ft | 396 kts | 266° |
| 2026-05-07 21:01 | 38.06636 | -98.76125 | 31950 ft | 397 kts | 266° |
| 2026-05-07 21:01 | 38.06169 | -98.83112 | 31945 ft | 396 kts | 266° |
| 2026-05-07 21:02 | 38.05702 | -98.90033 | 31943 ft | 396 kts | 266° |
| 2026-05-07 21:02 | 38.05227 | -98.97000 | 31942 ft | 396 kts | 266° |
| 2026-05-07 21:03 | 38.04749 | -99.03967 | 31945 ft | 396 kts | 266° |
| 2026-05-07 21:03 | 38.04266 | -99.10935 | 31939 ft | 398 kts | 266° |
| 2026-05-07 21:04 | 38.03777 | -99.17934 | 31940 ft | 397 kts | 266° |
| 2026-05-07 21:04 | 38.03286 | -99.24899 | 31937 ft | 396 kts | 266° |
| 2026-05-07 21:05 | 38.02791 | -99.31860 | 31937 ft | 396 kts | 265° |
| 2026-05-07 21:05 | 38.02293 | -99.38819 | 31939 ft | 396 kts | 265° |
| 2026-05-07 21:06 | 38.01790 | -99.45780 | 31947 ft | 396 kts | 265° |
| 2026-05-07 21:06 | 38.01281 | -99.52760 | 31670 ft | 398 kts | 265° |
| 2026-05-07 21:06 | 38.01026 | -99.56237 | 31415 ft | 393 kts | 265° |
| 2026-05-07 21:07 | 38.00776 | -99.59619 | 31317 ft | 384 kts | 266° |
| 2026-05-07 21:07 | 38.00527 | -99.62989 | 31125 ft | 379 kts | 266° |
| 2026-05-07 21:07 | 38.00280 | -99.66326 | 30679 ft | 381 kts | 266° |
| 2026-05-07 21:07 | 38.00032 | -99.69668 | 30243 ft | 380 kts | 266° |
| 2026-05-07 21:08 | 37.99782 | -99.72996 | 29773 ft | 378 kts | 266° |
| 2026-05-07 21:08 | 37.99534 | -99.76305 | 29272 ft | 376 kts | 266° |
| 2026-05-07 21:08 | 37.99286 | -99.79591 | 28784 ft | 373 kts | 266° |
| 2026-05-07 21:08 | 37.99039 | -99.82856 | 28282 ft | 371 kts | 266° |
| 2026-05-07 21:09 | 37.98793 | -99.86104 | 27803 ft | 369 kts | 266° |
| 2026-05-07 21:09 | 37.98547 | -99.89334 | 27337 ft | 367 kts | 266° |
| 2026-05-07 21:09 | 37.98301 | -99.92547 | 26881 ft | 365 kts | 266° |
| 2026-05-07 21:09 | 37.98056 | -99.95741 | 26431 ft | 363 kts | 266° |
| 2026-05-07 21:10 | 37.97811 | -99.98918 | 25993 ft | 361 kts | 266° |
| 2026-05-07 21:10 | 37.97567 | -100.02073 | 25562 ft | 359 kts | 266° |
| 2026-05-07 21:10 | 37.97324 | -100.05215 | 25129 ft | 357 kts | 266° |
| 2026-05-07 21:10 | 37.97081 | -100.08335 | 24706 ft | 355 kts | 266° |
| 2026-05-07 21:11 | 37.96838 | -100.11438 | 24301 ft | 353 kts | 266° |
| 2026-05-07 21:11 | 37.96597 | -100.14526 | 23892 ft | 351 kts | 266° |
| 2026-05-07 21:11 | 37.96121 | -100.20566 | 22983 ft | 348 kts | 266° |
| 2026-05-07 21:12 | 37.95880 | -100.23606 | 22505 ft | 346 kts | 266° |
| 2026-05-07 21:12 | 37.95640 | -100.26635 | 22032 ft | 345 kts | 265° |
| 2026-05-07 21:12 | 37.95399 | -100.29652 | 21570 ft | 344 kts | 265° |
| 2026-05-07 21:12 | 37.95159 | -100.32659 | 21113 ft | 342 kts | 265° |
| 2026-05-07 21:13 | 37.94919 | -100.35652 | 20662 ft | 341 kts | 265° |
| 2026-05-07 21:13 | 37.94679 | -100.38634 | 20221 ft | 340 kts | 265° |
| 2026-05-07 21:13 | 37.94439 | -100.41610 | 19787 ft | 339 kts | 265° |
| 2026-05-07 21:13 | 37.94199 | -100.44575 | 19363 ft | 338 kts | 265° |
| 2026-05-07 21:14 | 37.93959 | -100.47532 | 18939 ft | 337 kts | 265° |
| 2026-05-07 21:14 | 37.93718 | -100.50477 | 18524 ft | 336 kts | 265° |
| 2026-05-07 21:14 | 37.93478 | -100.53418 | 18091 ft | 335 kts | 265° |
| 2026-05-07 21:14 | 37.93238 | -100.56353 | 17614 ft | 334 kts | 265° |
| 2026-05-07 21:15 | 37.92997 | -100.59273 | 17139 ft | 333 kts | 265° |
| 2026-05-07 21:15 | 37.92760 | -100.62147 | 16685 ft | 332 kts | 265° |
| 2026-05-07 21:15 | 37.92517 | -100.65088 | 16225 ft | 331 kts | 265° |
| 2026-05-07 21:15 | 37.92277 | -100.67976 | 15778 ft | 329 kts | 265° |
| 2026-05-07 21:16 | 37.92061 | -100.70813 | 15348 ft | 327 kts | 269° |
| 2026-05-07 21:16 | 37.92453 | -100.73615 | 14968 ft | 325 kts | 293° |
| 2026-05-07 21:16 | 37.93500 | -100.76197 | 14606 ft | 326 kts | 298° |
| 2026-05-07 21:16 | 37.94637 | -100.78628 | 14233 ft | 325 kts | 300° |
| 2026-05-07 21:17 | 37.95807 | -100.81127 | 13852 ft | 324 kts | 299° |
| 2026-05-07 21:17 | 37.96913 | -100.83607 | 13497 ft | 323 kts | 298° |
| 2026-05-07 21:17 | 37.98008 | -100.86089 | 13132 ft | 322 kts | 299° |
| 2026-05-07 21:17 | 37.99115 | -100.88555 | 12808 ft | 321 kts | 299° |
| 2026-05-07 21:18 | 38.00223 | -100.91008 | 12475 ft | 320 kts | 299° |
| 2026-05-07 21:18 | 38.01320 | -100.93455 | 12140 ft | 318 kts | 299° |
| 2026-05-07 21:18 | 38.02409 | -100.95891 | 11815 ft | 316 kts | 299° |
| 2026-05-07 21:18 | 38.03482 | -100.98293 | 11490 ft | 311 kts | 299° |
| 2026-05-07 21:19 | 38.04542 | -101.00661 | 11165 ft | 306 kts | 299° |
| 2026-05-07 21:19 | 38.05584 | -101.02992 | 10838 ft | 302 kts | 299° |
| 2026-05-07 21:19 | 38.06615 | -101.05303 | 10515 ft | 299 kts | 300° |
| 2026-05-07 21:19 | 38.07637 | -101.07595 | 10210 ft | 298 kts | 299° |
| 2026-05-07 21:20 | 38.08650 | -101.09867 | 10041 ft | 292 kts | 299° |
| 2026-05-07 21:20 | 38.09660 | -101.12134 | 10050 ft | 297 kts | 299° |
| 2026-05-07 21:20 | 38.10677 | -101.14417 | 10057 ft | 296 kts | 299° |
| 2026-05-07 21:20 | 38.11689 | -101.16693 | 10053 ft | 296 kts | 300° |
| 2026-05-07 21:21 | 38.12697 | -101.18960 | 10057 ft | 295 kts | 300° |
| 2026-05-07 21:21 | 38.13702 | -101.21223 | 10055 ft | 294 kts | 300° |
| 2026-05-07 21:21 | 38.14706 | -101.23485 | 10059 ft | 293 kts | 300° |
| 2026-05-07 21:21 | 38.15707 | -101.25742 | 10056 ft | 294 kts | 300° |
| 2026-05-07 21:22 | 38.16709 | -101.28001 | 10050 ft | 293 kts | 300° |
| 2026-05-07 21:22 | 38.17708 | -101.30257 | 10051 ft | 293 kts | 300° |
| 2026-05-07 21:22 | 38.18709 | -101.32520 | 10047 ft | 293 kts | 299° |
| 2026-05-07 21:22 | 38.19709 | -101.34781 | 10049 ft | 294 kts | 299° |
| 2026-05-07 21:23 | 38.20709 | -101.37041 | 10041 ft | 293 kts | 299° |
| 2026-05-07 21:23 | 38.21709 | -101.39305 | 10043 ft | 294 kts | 299° |
| 2026-05-07 21:23 | 38.22708 | -101.41569 | 10046 ft | 293 kts | 299° |
| 2026-05-07 21:23 | 38.23705 | -101.43830 | 10047 ft | 294 kts | 299° |
| 2026-05-07 21:24 | 38.24707 | -101.46103 | 10046 ft | 294 kts | 299° |
| 2026-05-07 21:24 | 38.25706 | -101.48371 | 10043 ft | 294 kts | 299° |
| 2026-05-07 21:24 | 38.26703 | -101.50636 | 10048 ft | 293 kts | 299° |
| 2026-05-07 21:24 | 38.27699 | -101.52902 | 10048 ft | 293 kts | 299° |
| 2026-05-07 21:25 | 38.28695 | -101.55168 | 10041 ft | 293 kts | 299° |
| 2026-05-07 21:25 | 38.29689 | -101.57430 | 10048 ft | 293 kts | 299° |
| 2026-05-07 21:25 | 38.30684 | -101.59698 | 10042 ft | 293 kts | 299° |
| 2026-05-07 21:25 | 38.31677 | -101.61961 | 10058 ft | 292 kts | 299° |
| 2026-05-07 21:26 | 38.32332 | -101.63456 | 10053 ft | 291 kts | 299° |
| 2026-05-07 21:26 | 38.33319 | -101.65710 | 10051 ft | 292 kts | 299° |
| 2026-05-07 21:26 | 38.34309 | -101.67970 | 10048 ft | 292 kts | 298° |
| 2026-05-07 21:26 | 38.35297 | -101.70228 | 10044 ft | 293 kts | 298° |
| 2026-05-07 21:27 | 38.36288 | -101.72496 | 10053 ft | 293 kts | 298° |
| 2026-05-07 21:27 | 38.37278 | -101.74764 | 10051 ft | 293 kts | 298° |
| 2026-05-07 21:27 | 38.38267 | -101.77028 | 10049 ft | 292 kts | 299° |
| 2026-05-07 21:27 | 38.39256 | -101.79296 | 10050 ft | 293 kts | 299° |
| 2026-05-07 21:28 | 38.40243 | -101.81560 | 10049 ft | 292 kts | 298° |
| 2026-05-07 21:28 | 38.41230 | -101.83826 | 10051 ft | 292 kts | 298° |
| 2026-05-07 21:28 | 38.42218 | -101.86097 | 10050 ft | 293 kts | 298° |
| 2026-05-07 21:28 | 38.43207 | -101.88370 | 10047 ft | 293 kts | 298° |
| 2026-05-07 21:29 | 38.44195 | -101.90643 | 10050 ft | 293 kts | 298° |
| 2026-05-07 21:29 | 38.45182 | -101.92916 | 10055 ft | 292 kts | 298° |
| 2026-05-07 21:29 | 38.46165 | -101.95181 | 10049 ft | 292 kts | 298° |
| 2026-05-07 21:29 | 38.47147 | -101.97445 | 10053 ft | 291 kts | 298° |
| 2026-05-07 21:30 | 38.48126 | -101.99705 | 10044 ft | 291 kts | 298° |
| 2026-05-07 21:30 | 38.49103 | -102.01961 | 10050 ft | 290 kts | 298° |
| 2026-05-07 21:30 | 38.50079 | -102.04215 | 10059 ft | 290 kts | 298° |
| 2026-05-07 21:30 | 38.51057 | -102.06476 | 10047 ft | 291 kts | 298° |
| 2026-05-07 21:31 | 38.52035 | -102.08740 | 10042 ft | 291 kts | 298° |
| 2026-05-07 21:31 | 38.53013 | -102.11004 | 10045 ft | 291 kts | 298° |
| 2026-05-07 21:31 | 38.53991 | -102.13271 | 10046 ft | 292 kts | 298° |
| 2026-05-07 21:31 | 38.54968 | -102.15538 | 10043 ft | 291 kts | 298° |
| 2026-05-07 21:32 | 38.55944 | -102.17802 | 10045 ft | 291 kts | 298° |
| 2026-05-07 21:32 | 38.56921 | -102.20071 | 10052 ft | 291 kts | 298° |
| 2026-05-07 21:32 | 38.57985 | -102.22266 | 10039 ft | 291 kts | 301° |
| 2026-05-07 21:32 | 38.59055 | -102.24473 | 10042 ft | 293 kts | 301° |
| 2026-05-07 21:33 | 38.60134 | -102.26721 | 10047 ft | 293 kts | 301° |
| 2026-05-07 21:33 | 38.61196 | -102.28903 | 10042 ft | 294 kts | 301° |
| 2026-05-07 21:33 | 38.62278 | -102.31115 | 10044 ft | 293 kts | 301° |
| 2026-05-07 21:33 | 38.63355 | -102.33328 | 10045 ft | 293 kts | 301° |
| 2026-05-07 21:34 | 38.64427 | -102.35536 | 10049 ft | 292 kts | 301° |
| 2026-05-07 21:34 | 38.65497 | -102.37741 | 10046 ft | 291 kts | 301° |
| 2026-05-07 21:34 | 38.66567 | -102.39943 | 10042 ft | 291 kts | 301° |
| 2026-05-07 21:34 | 38.67636 | -102.42148 | 10039 ft | 292 kts | 301° |
| 2026-05-07 21:35 | 38.68709 | -102.44361 | 10049 ft | 293 kts | 300° |
| 2026-05-07 21:35 | 38.69788 | -102.46596 | 10048 ft | 298 kts | 300° |
| 2026-05-07 21:35 | 38.70878 | -102.48842 | 10045 ft | 296 kts | 300° |
| 2026-05-07 21:35 | 38.71963 | -102.51080 | 10042 ft | 296 kts | 300° |
| 2026-05-07 21:36 | 38.73043 | -102.53315 | 10039 ft | 294 kts | 300° |
| 2026-05-07 21:36 | 38.74119 | -102.55546 | 10038 ft | 295 kts | 300° |
| 2026-05-07 21:36 | 38.75201 | -102.57787 | 10041 ft | 296 kts | 300° |
| 2026-05-07 21:36 | 38.76283 | -102.60031 | 10042 ft | 296 kts | 300° |
| 2026-05-07 21:37 | 38.77374 | -102.62293 | 10049 ft | 300 kts | 300° |
| 2026-05-07 21:37 | 38.78474 | -102.64579 | 10042 ft | 301 kts | 300° |
| 2026-05-07 21:37 | 38.79572 | -102.66858 | 10047 ft | 301 kts | 300° |
| 2026-05-07 21:37 | 38.80670 | -102.69142 | 10044 ft | 300 kts | 300° |
| 2026-05-07 21:38 | 38.81766 | -102.71422 | 10041 ft | 301 kts | 300° |
| 2026-05-07 21:38 | 38.82867 | -102.73715 | 10042 ft | 303 kts | 300° |
| 2026-05-07 21:38 | 38.83968 | -102.76010 | 10045 ft | 302 kts | 300° |
| 2026-05-07 21:38 | 38.85073 | -102.78312 | 10043 ft | 304 kts | 300° |
| 2026-05-07 21:39 | 38.86178 | -102.80619 | 10040 ft | 303 kts | 300° |
| 2026-05-07 21:39 | 38.87277 | -102.82913 | 10043 ft | 301 kts | 300° |
| 2026-05-07 21:39 | 38.88375 | -102.85207 | 10042 ft | 302 kts | 300° |
| 2026-05-07 21:39 | 38.89472 | -102.87502 | 10042 ft | 302 kts | 300° |
| 2026-05-07 21:40 | 38.90568 | -102.89795 | 10033 ft | 303 kts | 300° |
| 2026-05-07 21:40 | 38.91669 | -102.92100 | 10036 ft | 303 kts | 300° |
| 2026-05-07 21:40 | 38.92772 | -102.94413 | 10041 ft | 304 kts | 300° |
| 2026-05-07 21:40 | 38.93878 | -102.96732 | 10041 ft | 304 kts | 300° |
| 2026-05-07 21:41 | 38.94980 | -102.99045 | 10045 ft | 303 kts | 300° |
| 2026-05-07 21:41 | 38.96088 | -103.01349 | 10041 ft | 304 kts | 300° |
| 2026-05-07 21:41 | 38.97205 | -103.03639 | 10111 ft | 301 kts | 301° |
| 2026-05-07 21:41 | 38.98322 | -103.05938 | 10123 ft | 304 kts | 300° |
| 2026-05-07 21:42 | 38.99436 | -103.08245 | 10123 ft | 303 kts | 300° |
| 2026-05-07 21:42 | 39.00549 | -103.10551 | 10123 ft | 304 kts | 300° |
| 2026-05-07 21:42 | 39.01665 | -103.12861 | 10123 ft | 305 kts | 300° |
| 2026-05-07 21:42 | 39.02782 | -103.15173 | 10121 ft | 304 kts | 301° |
| 2026-05-07 21:43 | 39.03896 | -103.17485 | 10121 ft | 305 kts | 300° |
| 2026-05-07 21:43 | 39.05010 | -103.19798 | 10121 ft | 303 kts | 300° |
| 2026-05-07 21:43 | 39.06107 | -103.22109 | 10119 ft | 303 kts | 300° |
| 2026-05-07 21:43 | 39.07189 | -103.24400 | 10122 ft | 303 kts | 300° |
| 2026-05-07 21:44 | 39.08287 | -103.26714 | 10123 ft | 304 kts | 300° |
| 2026-05-07 21:44 | 39.09390 | -103.29035 | 10134 ft | 304 kts | 300° |
| 2026-05-07 21:44 | 39.10489 | -103.31352 | 10139 ft | 303 kts | 300° |
| 2026-05-07 21:44 | 39.11586 | -103.33672 | 10148 ft | 303 kts | 300° |
| 2026-05-07 21:45 | 39.12683 | -103.35988 | 10158 ft | 303 kts | 300° |
| 2026-05-07 21:45 | 39.13775 | -103.38297 | 10163 ft | 302 kts | 300° |
| 2026-05-07 21:45 | 39.14872 | -103.40619 | 10171 ft | 303 kts | 300° |
| 2026-05-07 21:45 | 39.15961 | -103.42925 | 10176 ft | 301 kts | 300° |
| 2026-05-07 21:46 | 39.17052 | -103.45238 | 10181 ft | 302 kts | 300° |
| 2026-05-07 21:46 | 39.18144 | -103.47553 | 10187 ft | 302 kts | 300° |
| 2026-05-07 21:46 | 39.19233 | -103.49865 | 10189 ft | 302 kts | 301° |
| 2026-05-07 21:46 | 39.20323 | -103.52174 | 10202 ft | 301 kts | 300° |
| 2026-05-07 21:47 | 39.21406 | -103.54480 | 10210 ft | 303 kts | 300° |
| 2026-05-07 21:47 | 39.22504 | -103.56817 | 10216 ft | 304 kts | 300° |
| 2026-05-07 21:47 | 39.23597 | -103.59142 | 10228 ft | 302 kts | 300° |
| 2026-05-07 21:47 | 39.24678 | -103.61443 | 10228 ft | 299 kts | 300° |
| 2026-05-07 21:48 | 39.25752 | -103.63735 | 10225 ft | 298 kts | 300° |
| 2026-05-07 21:48 | 39.26824 | -103.66021 | 10225 ft | 298 kts | 300° |
| 2026-05-07 21:48 | 39.27894 | -103.68306 | 10226 ft | 297 kts | 300° |
| 2026-05-07 21:48 | 39.28992 | -103.70558 | 10225 ft | 296 kts | 304° |
| 2026-05-07 21:49 | 39.30167 | -103.72747 | 10224 ft | 297 kts | 303° |
| 2026-05-07 21:49 | 39.31324 | -103.74959 | 10222 ft | 297 kts | 303° |
| 2026-05-07 21:49 | 39.32487 | -103.77167 | 10223 ft | 298 kts | 303° |
| 2026-05-07 21:49 | 39.33660 | -103.79376 | 10216 ft | 298 kts | 303° |
| 2026-05-07 21:50 | 39.34831 | -103.81587 | 10211 ft | 298 kts | 303° |
| 2026-05-07 21:50 | 39.35995 | -103.83799 | 10205 ft | 297 kts | 303° |
| 2026-05-07 21:50 | 39.37156 | -103.86005 | 10192 ft | 297 kts | 303° |
| 2026-05-07 21:50 | 39.38325 | -103.88219 | 10132 ft | 299 kts | 303° |
| 2026-05-07 21:51 | 39.39498 | -103.90442 | 10132 ft | 300 kts | 303° |
| 2026-05-07 21:51 | 39.40669 | -103.92666 | 10134 ft | 299 kts | 303° |
| 2026-05-07 21:51 | 39.41839 | -103.94890 | 10147 ft | 298 kts | 303° |
| 2026-05-07 21:51 | 39.43001 | -103.97100 | 10150 ft | 298 kts | 303° |
| 2026-05-07 21:52 | 39.44161 | -103.99316 | 10147 ft | 297 kts | 301° |
| 2026-05-07 21:52 | 39.45226 | -104.01596 | 10131 ft | 296 kts | 301° |
| 2026-05-07 21:52 | 39.46323 | -104.03848 | 10131 ft | 296 kts | 301° |
| 2026-05-07 21:52 | 39.47420 | -104.06104 | 10130 ft | 296 kts | 301° |
| 2026-05-07 21:53 | 39.48501 | -104.08375 | 10131 ft | 296 kts | 301° |
| 2026-05-07 21:53 | 39.49578 | -104.10648 | 10133 ft | 296 kts | 301° |
| 2026-05-07 21:53 | 39.50716 | -104.12865 | 10131 ft | 296 kts | 312° |
| 2026-05-07 21:53 | 39.52462 | -104.14291 | 10134 ft | 305 kts | 341° |
| 2026-05-07 21:54 | 39.54585 | -104.14575 | 10127 ft | 308 kts | 356° |
| 2026-05-07 21:54 | 39.56734 | -104.14515 | 10123 ft | 310 kts | 358° |
| 2026-05-07 21:54 | 39.58888 | -104.14483 | 10125 ft | 309 kts | 355° |
| 2026-05-07 21:54 | 39.61037 | -104.14552 | 10122 ft | 309 kts | 354° |
| 2026-05-07 21:55 | 39.63184 | -104.14629 | 10116 ft | 310 kts | 355° |
| 2026-05-07 21:55 | 39.65374 | -104.14672 | 10125 ft | 309 kts | 355° |
| 2026-05-07 21:55 | 39.67496 | -104.14703 | 10130 ft | 309 kts | 355° |
| 2026-05-07 21:55 | 39.69672 | -104.14734 | 10125 ft | 309 kts | 355° |
| 2026-05-07 21:56 | 39.71855 | -104.14766 | 10129 ft | 309 kts | 355° |
| 2026-05-07 21:56 | 39.74000 | -104.14798 | 10128 ft | 309 kts | 355° |
| 2026-05-07 21:56 | 39.76148 | -104.14830 | 10133 ft | 309 kts | 355° |
| 2026-05-07 21:56 | 39.78294 | -104.14861 | 10124 ft | 308 kts | 355° |
| 2026-05-07 21:57 | 39.80438 | -104.14894 | 10122 ft | 308 kts | 355° |
| 2026-05-07 21:57 | 39.82583 | -104.14926 | 10121 ft | 308 kts | 355° |
| 2026-05-07 21:57 | 39.84706 | -104.15116 | 10129 ft | 303 kts | 340° |
| 2026-05-07 21:57 | 39.86477 | -104.16469 | 10137 ft | 296 kts | 310° |
| 2026-05-07 21:58 | 39.87443 | -104.18800 | 10141 ft | 294 kts | 285° |
| 2026-05-07 21:58 | 39.87773 | -104.21421 | 10148 ft | 294 kts | 275° |
| 2026-05-07 21:58 | 39.87832 | -104.24086 | 10148 ft | 294 kts | 271° |
| 2026-05-07 21:58 | 39.87805 | -104.26740 | 10166 ft | 293 kts | 270° |
| 2026-05-07 21:59 | 39.87754 | -104.29423 | 10088 ft | 294 kts | 270° |
| 2026-05-07 21:59 | 39.87683 | -104.32066 | 9907 ft | 292 kts | 269° |
| 2026-05-07 21:59 | 39.87596 | -104.34706 | 9719 ft | 292 kts | 269° |
| 2026-05-07 21:59 | 39.87530 | -104.36822 | 9560 ft | 292 kts | 269° |
| 2026-05-07 22:00 | 39.87441 | -104.39461 | 9372 ft | 290 kts | 269° |
| 2026-05-07 22:00 | 39.87402 | -104.40428 | 9281 ft | 290 kts | 268° |
| 2026-05-07 22:00 | 39.87391 | -104.40676 | 9252 ft | 289 kts | 269° |
| 2026-05-07 22:01 | 39.87320 | -104.43287 | 8781 ft | 290 kts | 271° |
| 2026-05-07 22:01 | 39.87334 | -104.45896 | 8236 ft | 279 kts | 272° |
| 2026-05-07 22:01 | 39.87384 | -104.48465 | 7610 ft | 281 kts | 274° |
| 2026-05-07 22:01 | 39.87464 | -104.50827 | 7045 ft | 248 kts | 276° |
| 2026-05-07 22:02 | 39.87535 | -104.52208 | 6903 ft | 215 kts | 276° |
| 2026-05-07 22:02 | 39.87595 | -104.53950 | 6714 ft | 172 kts | 274° |
| 2026-05-07 22:02 | 39.87629 | -104.55431 | 6394 ft | 155 kts | 274° |
| 2026-05-07 22:02 | 39.87666 | -104.56802 | 6158 ft | 155 kts | 273° |
| 2026-05-07 22:03 | 39.87680 | -104.58235 | 5929 ft | 158 kts | 272° |
| 2026-05-07 22:03 | 39.87705 | -104.59661 | 5771 ft | 156 kts | 272° |
| 2026-05-07 22:03 | 39.87713 | -104.61073 | 5449 ft | 149 kts | 271° |
| 2026-05-07 22:03 | 39.87725 | -104.62360 | 5457 ft | 143 kts | 272° |
| 2026-05-07 22:04 | 39.87745 | -104.63720 | 5722 ft | 157 kts | 273° |
| 2026-05-07 22:04 | 39.88068 | -104.65081 | 6270 ft | 156 kts | 299° |
| 2026-05-07 22:04 | 39.88694 | -104.66203 | 6616 ft | 151 kts | 315° |
| 2026-05-07 22:04 | 39.89653 | -104.66838 | 6679 ft | 165 kts | 340° |
| 2026-05-07 22:05 | 39.90869 | -104.66850 | 6817 ft | 184 kts | 6° |
| 2026-05-07 22:05 | 39.92023 | -104.66223 | 7158 ft | 177 kts | 22° |
| 2026-05-07 22:05 | 39.93020 | -104.65205 | 7272 ft | 190 kts | 39° |
| 2026-05-07 22:05 | 39.93842 | -104.63795 | 7505 ft | 200 kts | 54° |
| 2026-05-07 22:06 | 39.94358 | -104.62079 | 7801 ft | 208 kts | 73° |
| 2026-05-07 22:06 | 39.94483 | -104.60186 | 8106 ft | 213 kts | 87° |
| 2026-05-07 22:06 | 39.94447 | -104.58159 | 8154 ft | 235 kts | 90° |
| 2026-05-07 22:06 | 39.94361 | -104.55879 | 8317 ft | 269 kts | 91° |
| 2026-05-07 22:07 | 39.94229 | -104.53307 | 8519 ft | 298 kts | 92° |
| 2026-05-07 22:07 | 39.94038 | -104.50590 | 8695 ft | 312 kts | 99° |
| 2026-05-07 22:07 | 39.93088 | -104.48052 | 8970 ft | 319 kts | 141° |
| 2026-05-07 22:07 | 39.91160 | -104.46953 | 9264 ft | 295 kts | 189° |
| 2026-05-07 22:08 | 39.89313 | -104.47694 | 9318 ft | 278 kts | 218° |
| 2026-05-07 22:08 | 39.87892 | -104.49446 | 8357 ft | 293 kts | 240° |
| 2026-05-07 22:08 | 39.87217 | -104.51899 | 7161 ft | 279 kts | 275° |
| 2026-05-07 22:08 | 39.87381 | -104.54329 | 6392 ft | 256 kts | 279° |
| 2026-05-07 22:09 | 39.87618 | -104.56457 | 6109 ft | 215 kts | 278° |
| 2026-05-07 22:09 | 39.87648 | -104.56799 | 6025 ft | 209 kts | 276° |
| 2026-05-07 22:10 | 39.87676 | -104.57508 | 6253 ft | 169 kts | 273° |
| 2026-05-07 22:10 | 39.87695 | -104.58923 | 5708 ft | 145 kts | 271° |
| 2026-05-07 22:11 | 39.87709 | -104.60182 | 5519 ft | 141 kts | 272° |
| 2026-05-07 22:11 | 39.87722 | -104.61461 | 5363 ft | 141 kts | 271° |
| 2026-05-07 22:11 | 39.87727 | -104.62677 | 5312 ft | 115 kts | 270° |
| 2026-05-07 22:11 | 39.87732 | -104.63348 | 5330 ft | 38 kts | 270° |
| 2026-05-07 22:12 | 39.87738 | -104.63634 | 5332 ft | 27 kts | 271° |
| 2026-05-07 22:12 | 39.87738 | -104.63846 | 5333 ft | 20 kts | 271° |
| 2026-05-07 22:12 | 39.87740 | -104.64021 | 5329 ft | 19 kts | 271° |
| 2026-05-07 22:12 | 39.87736 | -104.64236 | 5337 ft | 27 kts | 265° |
| 2026-05-07 22:13 | 39.87712 | -104.64443 | 5340 ft | 20 kts | 260° |
| 2026-05-07 22:13 | 39.87675 | -104.64595 | 5341 ft | 15 kts | 244° |
| 2026-05-07 22:13 | 39.87630 | -104.64707 | 5345 ft | 13 kts | 242° |
| 2026-05-07 22:13 | 39.87593 | -104.64808 | 5346 ft | 12 kts | 252° |
| 2026-05-07 22:14 | 39.87582 | -104.64915 | 5348 ft | 12 kts | 270° |
| 2026-05-07 22:14 | 39.87582 | -104.65040 | 5350 ft | 15 kts | 270° |
| 2026-05-07 22:14 | 39.87583 | -104.65195 | 5352 ft | 19 kts | 270° |
| 2026-05-07 22:14 | 39.87584 | -104.65365 | 5353 ft | 20 kts | 270° |
| 2026-05-07 22:15 | 39.87586 | -104.65552 | 5355 ft | 22 kts | 270° |
| 2026-05-07 22:15 | 39.87542 | -104.65690 | 5357 ft | 17 kts | 189° |
| 2026-05-07 22:15 | 39.87478 | -104.65774 | 5358 ft | 14 kts | 264° |
| 2026-05-07 22:15 | 39.87479 | -104.65910 | 5360 ft | 17 kts | 270° |
| 2026-05-07 22:16 | 39.87480 | -104.66083 | 5364 ft | 21 kts | 270° |
| 2026-05-07 22:16 | 39.87425 | -104.66246 | 5364 ft | 22 kts | 210° |
| 2026-05-07 22:16 | 39.87300 | -104.66345 | 5365 ft | 20 kts | 176° |
| 2026-05-07 22:16 | 39.87152 | -104.66332 | 5369 ft | 24 kts | 179° |
| 2026-05-07 22:17 | 39.86970 | -104.66340 | 5371 ft | 28 kts | 179° |
| 2026-05-07 22:17 | 39.86763 | -104.66339 | 5377 ft | 31 kts | 181° |
| 2026-05-07 22:17 | 39.86543 | -104.66345 | 5387 ft | 24 kts | 189° |
| 2026-05-07 22:17 | 39.86494 | -104.66474 | 5385 ft | 15 kts | 246° |
| 2026-05-07 22:18 | 39.86413 | -104.66506 | 5387 ft | 13 kts | 179° |
| 2026-05-07 22:18 | 39.86187 | -104.66511 | 5387 ft | 17 kts | 181° |
| 2026-05-07 22:18 | 39.86126 | -104.66587 | 5387 ft | 12 kts | 270° |
| 2026-05-07 22:19 | 39.86129 | -104.66696 | 5387 ft | 12 kts | 272° |
| 2026-05-07 22:19 | 39.86152 | -104.66713 | 5387 ft | 3 kts | 34° |
| 2026-05-07 22:19 | 39.86177 | -104.66684 | 5387 ft | 7 kts | 39° |
| 2026-05-07 22:19 | 39.86225 | -104.66666 | 5387 ft | 7 kts | 2° |
| 2026-05-07 22:20 | 39.86241 | -104.66666 | 5386 ft | 0 kts | 2° |